CST,Max TemperatureF,Mean TemperatureF,Min TemperatureF,Max Dew PointF,MeanDew PointF,Min DewpointF,Max Humidity, Mean Humidity, Min Humidity, Max Sea Level PressureIn, Mean Sea Level PressureIn, Min Sea Level PressureIn, Max VisibilityMiles, Mean VisibilityMiles, Min VisibilityMiles, Max Wind SpeedMPH, Mean Wind SpeedMPH, Max Gust SpeedMPH,PrecipitationIn, CloudCover, Events, WindDirDegrees
2013-1-1,25,22,19,18,17,15,84,79,74,30.36,30.25,30.09,10,10,10,14,7,18,0.00,6,,341
2013-1-2,39,28,17,23,19,14,92,72,52,30.41,30.33,30.27,10,10,9,15,6,17,0.00,0,,289
2013-1-3,39,30,20,19,17,15,88,64,40,30.53,30.45,30.40,10,10,10,9,4,13,0.00,1,,244
2013-1-4,37,30,22,27,22,17,75,69,63,30.40,30.31,30.14,10,10,7,18,11,24,T,5,Snow,220
2013-1-5,46,36,25,24,20,13,81,57,33,30.42,30.25,30.12,10,10,10,20,9,24,0.00,0,,297
2013-1-6,51,36,21,24,20,18,88,59,29,30.47,30.35,30.23,10,10,10,15,8,23,0.00,0,,225
2013-1-7,52,43,33,25,22,20,61,46,30,30.22,30.08,29.96,10,10,10,20,11,26,0.00,0,,207
2013-1-8,57,45,33,29,26,20,70,53,35,30.19,29.99,29.91,10,10,10,17,9,24,0.00,0,,228
2013-1-9,52,42,31,37,29,22,92,61,30,30.40,30.25,30.13,10,8,3,20,9,26,0.55,4,Rain,25
2013-1-10,48,43,37,40,37,35,100,85,70,30.12,29.89,29.69,10,7,1,20,7,29,0.13,6,Rain,287
2013-1-11,63,49,35,36,25,9,66,44,21,29.84,29.65,29.50,10,10,10,37,19,52,0.00,0,,241
2013-1-12,33,26,19,22,17,11,93,76,40,30.13,30.00,29.86,10,7,0,17,9,,0.00,7,Fog-Snow,31
2013-1-13,28,22,15,14,11,8,84,70,55,30.33,30.27,30.17,10,10,9,12,4,18,0.01,3,Snow,53
2013-1-14,29,23,16,12,10,8,80,61,42,30.39,30.32,30.25,10,10,10,12,5,17,0.00,4,,124
2013-1-15,33,27,20,16,14,12,77,62,47,30.29,30.26,30.18,10,10,10,12,4,16,T,3,,247
2013-1-16,54,38,21,27,22,12,77,56,35,30.35,30.23,30.18,10,10,10,17,9,22,0.00,2,,284
2013-1-17,53,41,28,26,24,21,75,54,32,30.57,30.47,30.40,10,10,10,18,6,25,0.00,0,,222
2013-1-18,61,49,36,27,25,23,64,45,25,30.39,30.22,30.06,10,10,10,26,14,41,0.00,0,,212
2013-1-19,64,48,31,23,20,14,64,39,14,30.27,30.15,30.03,10,10,10,20,7,23,0.00,0,,316
2013-1-20,63,45,26,26,21,12,75,45,14,30.29,30.19,30.06,10,10,10,20,8,25,0.00,0,,309
2013-1-21,48,35,21,27,21,17,84,63,42,30.42,30.30,30.20,10,10,10,17,7,22,0.00,0,,257
2013-1-22,65,48,30,25,23,20,69,44,18,30.19,30.13,30.05,10,10,10,14,5,18,0.00,0,,229
2013-1-23,71,48,25,27,22,15,88,50,12,30.23,30.15,30.06,10,10,10,12,5,15,0.00,0,,223
2013-1-24,40,34,28,30,25,21,92,69,45,30.25,30.15,30.06,10,9,5,14,6,18,0.00,4,,34
2013-1-25,56,41,26,26,24,23,92,60,27,30.29,30.20,30.11,10,9,6,12,4,15,0.00,0,,42
2013-1-26,64,49,34,35,30,26,70,51,31,30.16,30.01,29.87,10,10,10,25,11,35,0.00,2,,176
2013-1-27,74,61,47,48,37,30,93,57,20,29.85,29.76,29.68,10,10,10,30,15,40,0.00,0,,215
2013-1-28,73,61,48,35,32,26,52,36,19,29.80,29.71,29.61,10,10,10,29,15,37,0.00,0,,216
2013-1-29,57,43,29,34,29,22,92,63,33,29.84,29.65,29.51,10,7,1,25,13,33,T,6,Snow,331
2013-1-30,43,33,23,20,17,14,75,52,29,30.14,30.03,29.87,10,10,10,21,11,28,0.00,0,,265
2013-1-31,59,45,30,24,20,17,69,45,21,30.29,30.13,30.01,10,10,10,22,10,28,0.00,0,,258